Time;durP1;ratioP1;P1;durP2;ratioP2;P2;SDS_P1;SDS_P2;PMS_P1;PMS_P2;Temp;Humidity;BMP_temperature;BMP_pressure;BME280_temperature;BME280_humidity;BME280_pressure;Samples;Min_cycle;Max_cycle;Signal;HPM_P1;HPM_P2
2021/06/04 00:00:36;;;;;;;3.83;2.33;;;;;;;19.51;45.23;100535.25;3376715;29;20111;-72
2021/06/04 00:02:16;;;;;;;5.65;3.13;;;;;;;19.46;44.91;100529.72;3378082;29;20051;-72
2021/06/04 00:03:58;;;;;;;6.47;2.63;;;;;;;19.44;45.02;100529.16;3378679;29;20522;-72
2021/06/04 00:05:45;;;;;;;6.20;2.50;;;;;;;19.41;45.25;100529.59;3377756;29;20047;-73
2021/06/04 00:07:26;;;;;;;3.67;2.40;;;;;;;19.34;45.19;100524.31;3376947;29;20121;-71
2021/06/04 00:09:09;;;;;;;8.67;3.30;;;;;;;19.36;45.11;100534.88;3377066;29;20123;-73
2021/06/04 00:10:56;;;;;;;3.38;2.22;;;;;;;19.37;46.08;100537.38;3378207;29;20074;-72
2021/06/04 00:12:37;;;;;;;7.78;2.90;;;;;;;19.36;46.19;100534.88;3377425;29;20047;-71
2021/06/04 00:14:26;;;;;;;6.43;2.75;;;;;;;19.35;46.01;100530.53;3376924;29;20036;-72
2021/06/04 00:16:19;;;;;;;3.95;2.35;;;;;;;19.31;45.80;100535.59;3375891;29;20041;-73
2021/06/04 00:18:00;;;;;;;6.20;2.63;;;;;;;19.26;45.69;100530.06;3376616;29;20056;-72
2021/06/04 00:19:41;;;;;;;4.07;2.50;;;;;;;19.23;45.86;100526.97;3376509;29;20052;-72
2021/06/04 00:21:28;;;;;;;4.93;2.20;;;;;;;19.26;46.02;100534.63;3376206;29;20045;-73
2021/06/04 00:23:09;;;;;;;7.03;2.60;;;;;;;19.25;46.10;100532.97;3376545;29;20040;-73
2021/06/04 00:24:53;;;;;;;6.10;2.90;;;;;;;19.26;45.83;100532.75;3377121;29;20456;-72
2021/06/04 00:26:36;;;;;;;5.47;2.95;;;;;;;19.22;45.97;100531.56;3376933;29;20052;-72
2021/06/04 00:28:17;;;;;;;8.65;2.65;;;;;;;19.18;45.89;100531.22;3376353;29;20044;-73
2021/06/04 00:29:58;;;;;;;5.50;2.58;;;;;;;19.15;45.45;100533.53;3376979;29;20124;-70
2021/06/04 00:31:40;;;;;;;5.43;1.92;;;;;;;19.12;45.83;100534.00;3376660;29;20274;-74
2021/06/04 00:33:21;;;;;;;;;;;;;;;19.15;45.82;100537.09;3377388;29;20045;-72
2021/06/04 00:35:05;;;;;;;4.80;3.03;;;;;;;19.03;45.83;100538.91;3376798;29;20318;-71
2021/06/04 00:36:47;;;;;;;9.18;4.45;;;;;;;18.99;45.74;100532.31;3376081;29;20051;-72
2021/06/04 00:38:27;;;;;;;2.85;2.15;;;;;;;18.94;45.91;100532.16;3376752;29;20108;-72
2021/06/04 00:40:15;;;;;;;5.75;3.05;;;;;;;18.96;45.85;100540.88;3376789;29;20625;-72
2021/06/04 00:42:02;;;;;;;2.85;2.30;;;;;;;18.92;45.86;100536.97;3375941;29;20044;-71
2021/06/04 00:43:49;;;;;;;2.80;2.30;;;;;;;18.89;45.71;100549.06;3374349;29;20078;-73
2021/06/04 00:45:34;;;;;;;4.28;3.22;;;;;;;18.86;46.66;100537.91;3373283;29;20045;-72
2021/06/04 00:47:15;;;;;;;2.47;2.25;;;;;;;18.84;46.21;100548.09;3372957;29;20052;-72
2021/06/04 00:48:57;;;;;;;4.50;2.87;;;;;;;18.81;46.54;100540.47;3372204;29;20055;-73
2021/06/04 00:50:44;;;;;;;3.45;2.65;;;;;;;18.79;46.42;100546.06;3373144;29;20683;-73
2021/06/04 00:52:34;;;;;;;4.00;2.95;;;;;;;18.77;46.66;100550.06;3376226;29;20490;-73
2021/06/04 00:54:18;;;;;;;6.15;1.98;;;;;;;18.71;46.52;100541.78;3376677;29;20592;-73
2021/06/04 00:56:01;;;;;;;4.22;2.70;;;;;;;18.69;46.60;100546.59;3375653;29;20049;-73
2021/06/04 00:57:44;;;;;;;3.45;2.30;;;;;;;18.69;46.54;100549.31;3360126;29;20053;-73
2021/06/04 00:59:34;;;;;;;5.55;2.83;;;;;;;18.69;46.50;100549.31;3371069;29;20558;-73
2021/06/04 01:01:19;;;;;;;4.50;2.47;;;;;;;18.68;46.66;100558.44;3373743;29;20080;-74
2021/06/04 01:03:01;;;;;;;4.95;2.47;;;;;;;18.68;47.08;100561.13;3349307;29;20495;-73
2021/06/04 01:04:43;;;;;;;2.53;2.30;;;;;;;18.67;46.72;100559.50;3357556;29;20047;-71
2021/06/04 01:06:34;;;;;;;2.63;1.90;;;;;;;18.66;47.12;100565.94;3360119;29;20055;-71
2021/06/04 01:08:31;;;;;;;6.45;2.42;;;;;;;18.67;46.60;100561.38;3375088;29;20147;-71
2021/06/04 01:10:36;;;;;;;5.68;2.70;;;;;;;18.66;46.81;100559.72;3375063;29;20052;-71
2021/06/04 01:12:36;;;;;;;4.25;2.47;;;;;;;18.63;47.17;100570.97;3362382;29;20127;-71
2021/06/04 01:15:02;;;;;;;8.18;2.88;;;;;;;18.64;46.99;100576.16;3375039;29;20048;-71
2021/06/04 01:16:58;;;;;;;3.58;2.05;;;;;;;18.60;46.86;100571.44;3368406;29;20504;-72
2021/06/04 01:18:58;;;;;;;3.88;2.47;;;;;;;18.59;46.83;100573.31;3375834;29;20044;-72
2021/06/04 01:21:01;;;;;;;3.28;2.25;;;;;;;18.53;46.66;100566.09;3374718;29;20064;-72
2021/06/04 01:22:50;;;;;;;4.72;1.58;;;;;;;18.50;46.98;100575.47;3374886;29;20139;-73
2021/06/04 01:24:34;;;;;;;4.80;2.20;;;;;;;18.48;46.67;100574.03;3376004;29;20103;-72
2021/06/04 01:26:21;;;;;;;12.60;8.90;;;;;;;18.47;46.68;100575.09;3374804;29;20501;-72
2021/06/04 01:28:14;;;;;;;42.95;30.50;;;;;;;18.44;47.04;100572.88;3373000;29;20044;-73
2021/06/04 01:30:07;;;;;;;27.90;18.83;;;;;;;18.46;47.11;100579.69;3362444;29;20048;-72
2021/06/04 01:31:52;;;;;;;15.38;10.95;;;;;;;18.46;46.88;100581.56;3372901;29;20108;-73
2021/06/04 01:33:44;;;;;;;12.50;7.72;;;;;;;18.47;46.81;100580.50;3360207;29;20131;-72
2021/06/04 01:35:32;;;;;;;10.50;4.13;;;;;;;18.46;46.99;100586.97;3373833;29;20059;-72
2021/06/04 01:37:23;;;;;;;4.80;3.60;;;;;;;18.44;46.63;100586.38;3359697;29;20151;-72
2021/06/04 01:39:19;;;;;;;9.75;3.50;;;;;;;18.42;47.08;100581.19;3386968;29;20138;-72
2021/06/04 01:41:07;;;;;;;5.28;3.20;;;;;;;18.43;46.90;100582.00;3362255;29;20048;-71
2021/06/04 01:42:50;;;;;;;4.95;3.08;;;;;;;18.40;46.88;100579.75;3371702;29;20054;-72
2021/06/04 01:44:49;;;;;;;5.13;3.20;;;;;;;18.42;46.97;100580.34;3375746;29;20080;-70
2021/06/04 01:46:34;;;;;;;3.22;2.40;;;;;;;18.39;47.16;100586.22;3375085;29;20055;-71
2021/06/04 01:48:21;;;;;;;3.08;2.53;;;;;;;18.41;47.00;100592.22;3359853;29;20596;-72
2021/06/04 01:50:15;;;;;;;3.50;2.78;;;;;;;18.41;47.23;100590.34;3374464;29;20052;-71
2021/06/04 01:51:59;;;;;;;6.97;2.70;;;;;;;18.40;47.34;100587.84;3361903;29;20045;-72
2021/06/04 01:53:53;;;;;;;6.22;2.72;;;;;;;18.40;47.14;100593.25;3360599;29;20071;-75
2021/06/04 01:55:37;;;;;;;3.40;2.10;;;;;;;18.38;46.94;100590.78;3347733;29;20481;-73
2021/06/04 01:57:27;;;;;;;3.65;2.50;;;;;;;18.38;46.59;100595.34;3345227;29;20053;-73
2021/06/04 01:59:34;;;;;;;8.23;2.70;;;;;;;18.40;46.55;100593.25;3358949;29;20086;-72
2021/06/04 02:01:35;;;;;;;2.25;2.00;;;;;;;18.36;47.03;100594.75;3360315;29;20049;-72
2021/06/04 02:03:19;;;;;;;3.85;2.40;;;;;;;18.34;47.32;100586.06;3360275;29;20136;-71
2021/06/04 02:05:16;;;;;;;4.50;2.63;;;;;;;18.36;46.90;100581.25;3361550;29;20069;-72
2021/06/04 02:06:59;;;;;;;3.15;2.25;;;;;;;18.33;46.75;100577.13;3360058;29;20040;-74
2021/06/04 02:08:52;;;;;;;5.03;2.77;;;;;;;18.39;46.71;100581.63;3359523;29;20097;-72
2021/06/04 02:10:49;;;;;;;3.35;2.30;;;;;;;18.39;46.51;100589.72;3361860;29;20366;-73
2021/06/04 02:12:32;;;;;;;3.28;2.60;;;;;;;18.40;46.78;100582.44;3348845;29;21058;-74
2021/06/04 02:14:30;;;;;;;5.50;3.93;;;;;;;18.41;47.23;100584.94;3360774;29;20059;-73
2021/06/04 02:16:31;;;;;;;28.40;18.73;;;;;;;18.44;46.98;100586.38;3362931;29;20343;-74
2021/06/04 02:18:30;;;;;;;22.02;10.73;;;;;;;18.47;46.80;100588.59;3374993;29;20049;-74
2021/06/04 02:20:30;;;;;;;6.32;4.95;;;;;;;18.52;46.64;100586.88;3375338;29;20532;-74
2021/06/04 02:22:31;;;;;;;6.28;4.28;;;;;;;18.56;46.26;100594.53;3362242;29;20476;-75
2021/06/04 02:24:39;;;;;;;6.45;3.97;;;;;;;18.57;46.34;100594.31;3374453;29;20052;-73
2021/06/04 02:26:30;;;;;;;9.63;3.50;;;;;;;18.57;46.48;100594.31;3349112;29;20198;-74
2021/06/04 02:28:41;;;;;;;4.68;2.20;;;;;;;18.59;46.42;100592.22;3354484;29;20343;-72
2021/06/04 02:30:34;;;;;;;8.40;2.60;;;;;;;18.60;46.15;100593.03;3374646;29;20510;-72
2021/06/04 02:32:23;;;;;;;5.20;2.10;;;;;;;18.57;46.28;100594.31;3360190;29;20057;-72
2021/06/04 02:34:24;;;;;;;6.23;2.23;;;;;;;18.59;46.09;100594.91;3346580;29;20053;-73
2021/06/04 02:36:13;;;;;;;3.28;2.13;;;;;;;18.58;46.27;100595.94;3361039;29;20135;-72
2021/06/04 02:38:11;;;;;;;4.10;2.28;;;;;;;18.61;46.58;100594.66;3384221;29;20043;-73
2021/06/04 02:39:57;;;;;;;3.55;2.35;;;;;;;18.59;46.46;100597.63;3375926;29;20052;-71
2021/06/04 02:41:41;;;;;;;3.63;2.03;;;;;;;18.60;46.34;100599.25;3361816;29;20049;-73
2021/06/04 02:43:36;;;;;;;4.90;2.60;;;;;;;18.62;46.16;100597.16;3372570;29;20078;-73
2021/06/04 02:45:27;;;;;;;5.00;2.88;;;;;;;18.65;46.42;100599.41;3360994;29;20057;-73
2021/06/04 02:47:16;;;;;;;3.58;2.17;;;;;;;18.68;46.17;100604.34;3372443;29;20056;-73
2021/06/04 02:48:57;;;;;;;2.78;2.30;;;;;;;18.67;46.36;100600.00;3361921;29;20126;-73
2021/06/04 02:50:44;;;;;;;7.15;2.33;;;;;;;18.69;46.09;100610.56;3373158;29;20423;-75
2021/06/04 02:52:35;;;;;;;21.23;12.15;;;;;;;18.71;46.17;100606.59;3361439;29;20140;-71
2021/06/04 02:54:19;;;;;;;12.98;9.02;;;;;;;18.72;46.32;100610.97;3371778;29;20052;-72
2021/06/04 02:56:05;;;;;;;12.98;7.30;;;;;;;18.75;46.24;100607.00;3371830;29;20408;-72
2021/06/04 02:57:49;;;;;;;9.68;5.10;;;;;;;18.75;46.38;100604.31;3359971;29;20057;-72
2021/06/04 02:59:36;;;;;;;4.78;3.20;;;;;;;18.81;46.20;100607.97;3369945;29;20040;-73
2021/06/04 03:01:20;;;;;;;6.85;4.28;;;;;;;18.86;46.73;100602.72;3372687;29;20045;-72
2021/06/04 03:03:07;;;;;;;6.38;3.58;;;;;;;18.91;46.76;100605.56;3374216;29;20068;-74
2021/06/04 03:04:54;;;;;;;4.75;3.10;;;;;;;18.96;45.89;100611.13;3375191;29;20049;-74
2021/06/04 03:06:41;;;;;;;4.03;3.10;;;;;;;18.96;46.06;100608.41;3360806;29;20143;-73
2021/06/04 03:08:25;;;;;;;4.43;2.20;;;;;;;18.96;46.10;100611.13;3370955;29;20044;-75
2021/06/04 03:10:16;;;;;;;4.15;2.70;;;;;;;18.98;45.91;100611.72;3372172;29;20105;-75
2021/06/04 03:12:00;;;;;;;4.55;2.80;;;;;;;19.00;45.73;100617.72;3372969;29;20048;-73
2021/06/04 03:13:43;;;;;;;3.08;2.70;;;;;;;19.04;45.95;100612.69;3375036;29;20079;-73
2021/06/04 03:15:35;;;;;;;2.17;1.73;;;;;;;19.05;45.58;100617.88;3374288;29;20139;-74
2021/06/04 03:17:22;;;;;;;7.93;2.58;;;;;;;19.06;46.15;100614.09;3362521;29;20957;-72
2021/06/04 03:19:07;;;;;;;4.43;2.55;;;;;;;19.11;46.62;100613.44;3374303;29;20488;-71
2021/06/04 03:20:50;;;;;;;3.92;2.30;;;;;;;19.19;45.98;100613.09;3361545;29;20053;-72
2021/06/04 03:22:39;;;;;;;3.88;1.83;;;;;;;19.25;45.91;100612.19;3369074;29;20052;-73
2021/06/04 03:24:29;;;;;;;4.10;2.17;;;;;;;19.30;45.95;100608.78;3374302;29;20052;-71
2021/06/04 03:26:19;;;;;;;6.90;2.40;;;;;;;19.30;45.91;100608.78;3359623;29;20053;-72
2021/06/04 03:28:00;;;;;;;3.75;2.08;;;;;;;19.08;45.51;100562.56;3360123;29;20045;-72
2021/06/04 03:29:47;;;;;;;5.32;2.42;;;;;;;19.39;45.36;100608.25;3374646;29;20401;-73
2021/06/04 03:31:31;;;;;;;2.72;1.98;;;;;;;19.49;46.74;100613.09;3376267;29;20048;-69
2021/06/04 03:33:16;;;;;;;4.90;1.70;;;;;;;19.64;46.90;100611.84;3350963;29;20102;-68
2021/06/04 03:35:05;;;;;;;6.55;2.13;;;;;;;19.82;47.29;100615.31;3374220;29;20055;-69
2021/06/04 03:36:48;;;;;;;3.33;2.08;;;;;;;19.97;47.06;100611.34;3376260;29;20056;-70
2021/06/04 03:38:30;;;;;;;4.28;1.77;;;;;;;20.11;46.72;100620.03;3374313;29;20603;-69
2021/06/04 03:40:15;;;;;;;17.38;2.22;;;;;;;20.26;46.62;100612.28;3373822;29;20052;-69
2021/06/04 03:41:58;;;;;;;6.78;1.67;;;;;;;20.38;46.32;100613.09;3374504;29;20491;-69
2021/06/04 03:43:39;;;;;;;3.85;2.05;;;;;;;20.48;45.82;100620.63;3377099;29;20052;-69
2021/06/04 03:45:25;;;;;;;4.18;2.72;;;;;;;20.55;45.84;100615.13;3377035;29;20044;-67
2021/06/04 03:47:07;;;;;;;3.67;1.77;;;;;;;20.62;45.49;100616.63;3376294;29;20077;-68
2021/06/04 03:48:49;;;;;;;3.40;1.58;;;;;;;20.70;45.34;100607.31;3377115;29;20055;-70
2021/06/04 03:50:30;;;;;;;7.77;2.30;;;;;;;20.76;45.09;100611.78;3377426;29;20080;-67
2021/06/04 03:52:15;;;;;;;2.47;1.70;;;;;;;20.84;44.99;100608.72;3362950;29;20500;-67
2021/06/04 03:53:55;;;;;;;2.72;1.95;;;;;;;20.90;45.29;100604.22;3374828;29;20139;-68
2021/06/04 03:55:38;;;;;;;3.10;1.57;;;;;;;20.95;44.98;100604.31;3377290;29;20048;-67
2021/06/04 03:57:26;;;;;;;6.35;1.80;;;;;;;21.02;44.82;100607.72;3377100;29;20041;-69
2021/06/04 03:59:07;;;;;;;3.20;1.95;;;;;;;21.02;44.70;100599.56;3377155;29;20080;-70
2021/06/04 04:00:54;;;;;;;2.23;1.70;;;;;;;21.11;44.92;100610.84;3377307;29;20056;-69
2021/06/04 04:02:35;;;;;;;6.20;1.77;;;;;;;21.15;44.78;100612.03;3376859;29;20468;-71
2021/06/04 04:04:15;;;;;;;2.60;1.60;;;;;;;21.18;44.28;100606.13;3377318;29;20051;-70
2021/06/04 04:05:56;;;;;;;5.10;1.70;;;;;;;21.20;44.33;100604.00;3377494;29;20095;-72
2021/06/04 04:07:40;;;;;;;5.20;2.10;;;;;;;21.24;44.29;100605.13;3377069;29;20510;-71
2021/06/04 04:09:21;;;;;;;2.90;1.40;;;;;;;21.30;44.10;100606.88;3376127;29;20559;-69
2021/06/04 04:11:02;;;;;;;8.65;2.13;;;;;;;21.35;44.15;100598.84;3376856;29;20575;-71
2021/06/04 04:12:43;;;;;;;8.77;2.33;;;;;;;21.39;44.54;100601.09;3375659;29;20138;-70
2021/06/04 04:14:24;;;;;;;6.85;1.60;;;;;;;21.43;44.82;100602.28;3376764;29;20504;-71
2021/06/04 04:16:05;;;;;;;;;;;;;;;21.49;44.42;100598.56;3376647;29;20583;-70
2021/06/04 04:17:48;;;;;;;5.10;1.73;;;;;;;21.45;44.69;100598.25;3373192;29;19923;-73
2021/06/04 04:19:30;;;;;;;7.93;1.85;;;;;;;21.54;44.90;100602.19;3373788;29;20059;-71
2021/06/04 04:21:13;;;;;;;6.70;1.57;;;;;;;21.58;44.58;100601.69;3376742;29;20057;-70
2021/06/04 04:22:55;;;;;;;5.32;1.85;;;;;;;21.61;44.36;100602.03;3376711;29;20049;-73
2021/06/04 04:24:37;;;;;;;;;;;;;;;21.67;44.68;100603.75;3377117;29;20500;-73
2021/06/04 04:26:20;;;;;;;2.70;2.22;;;;;;;21.67;44.14;100601.06;3376255;29;19927;-71
2021/06/04 04:28:05;;;;;;;4.18;1.95;;;;;;;21.67;43.92;100595.63;3376743;29;20040;-70
2021/06/04 04:29:46;;;;;;;5.30;2.38;;;;;;;21.70;44.46;100597.84;3376874;29;20215;-73
2021/06/04 04:31:31;;;;;;;8.10;1.27;;;;;;;21.74;44.51;100592.75;3376569;29;20065;-72
2021/06/04 04:33:13;;;;;;;5.88;2.63;;;;;;;21.78;44.45;100600.16;3376630;29;20509;-73
2021/06/04 04:34:55;;;;;;;2.05;1.73;;;;;;;21.82;44.32;100599.69;3366133;29;20049;-70
2021/06/04 04:36:48;;;;;;;2.72;1.30;;;;;;;21.88;43.74;100585.09;3363909;29;20048;-70
2021/06/04 04:38:28;;;;;;;7.25;1.40;;;;;;;21.88;43.66;100585.09;3363667;29;20060;-74
2021/06/04 04:40:10;;;;;;;4.20;1.40;;;;;;;21.92;43.91;100586.28;3363137;29;20055;-72
2021/06/04 04:41:51;;;;;;;;;;;;;;;21.97;43.74;100586.34;3365239;29;20040;-68
2021/06/04 04:43:37;;;;;;;2.55;1.20;;;;;;;21.95;43.54;100585.75;3376039;29;19923;-67
2021/06/04 04:45:20;;;;;;;3.65;1.67;;;;;;;21.98;44.69;100593.41;3376488;29;20052;-69
2021/06/04 04:47:03;;;;;;;13.20;2.00;;;;;;;22.01;45.71;100582.06;3376658;29;20083;-69
2021/06/04 04:48:44;;;;;;;3.25;1.33;;;;;;;22.10;45.92;100590.63;3376537;29;20044;-72
2021/06/04 04:50:26;;;;;;;4.22;1.80;;;;;;;22.13;45.87;100588.22;3376728;29;20044;-72
2021/06/04 04:52:11;;;;;;;9.20;1.83;;;;;;;22.19;45.15;100589.94;3376441;29;20095;-71
2021/06/04 04:53:54;;;;;;;2.58;1.40;;;;;;;22.21;44.95;100584.28;3376913;29;20048;-75
2021/06/04 04:55:36;;;;;;;4.35;1.40;;;;;;;22.25;44.64;100587.31;3376406;29;20041;-71
2021/06/04 04:57:18;;;;;;;13.30;1.65;;;;;;;22.29;44.69;100586.56;3388224;29;20047;-71
2021/06/04 04:58:59;;;;;;;1.90;1.33;;;;;;;22.34;44.73;100585.81;3378735;29;20072;-70
2021/06/04 05:00:41;;;;;;;1.57;1.20;;;;;;;22.40;44.92;100592.97;3376235;29;20048;-72
2021/06/04 05:02:23;;;;;;;3.25;0.93;;;;;;;22.46;44.68;100586.53;3376126;29;20048;-72
2021/06/04 05:04:04;;;;;;;2.88;1.40;;;;;;;22.53;44.58;100587.16;3388606;29;20071;-72
2021/06/04 05:05:45;;;;;;;6.18;1.20;;;;;;;22.57;44.46;100588.31;3375342;29;20554;-72
2021/06/04 05:07:26;;;;;;;1.58;1.48;;;;;;;22.62;44.08;100584.84;3376058;29;20043;-72
2021/06/04 05:09:07;;;;;;;13.37;2.10;;;;;;;22.69;44.10;100595.50;3376491;29;20041;-70
2021/06/04 05:10:48;;;;;;;1.77;1.60;;;;;;;22.72;43.90;100584.13;3376390;29;20051;-68
2021/06/04 05:12:30;;;;;;;5.90;2.42;;;;;;;22.77;43.53;100576.03;3375825;29;20147;-67
2021/06/04 05:14:11;;;;;;;3.37;1.93;;;;;;;22.80;43.50;100591.84;3376191;29;20047;-69
2021/06/04 05:15:52;;;;;;;5.57;2.00;;;;;;;22.82;42.92;100581.53;3375445;29;20052;-68
2021/06/04 05:17:32;;;;;;;5.97;1.63;;;;;;;22.87;42.93;100578.88;3376325;29;20040;-69
2021/06/04 05:19:13;;;;;;;3.97;1.70;;;;;;;22.93;42.86;100582.50;3375040;29;20052;-70
2021/06/04 05:20:54;;;;;;;5.17;1.67;;;;;;;22.94;42.30;100575.97;3376144;29;20052;-70
2021/06/04 05:22:35;;;;;;;4.30;1.67;;;;;;;23.00;42.01;100585.84;3376101;29;20534;-69
2021/06/04 05:24:16;;;;;;;5.47;1.52;;;;;;;23.03;41.88;100579.91;3376114;29;20508;-70
2021/06/04 05:25:57;;;;;;;11.50;1.93;;;;;;;23.07;41.73;100586.47;3376039;29;20044;-70
2021/06/04 05:27:38;;;;;;;4.17;1.60;;;;;;;23.10;41.33;100585.13;3375279;29;20527;-67
2021/06/04 05:29:19;;;;;;;6.63;1.50;;;;;;;23.14;41.26;100586.28;3376129;29;20292;-69
2021/06/04 05:31:06;;;;;;;2.67;1.73;;;;;;;23.16;41.49;100584.94;3375506;29;20296;-71
2021/06/04 05:32:47;;;;;;;6.55;2.00;;;;;;;23.21;41.30;100582.28;3375575;29;20044;-70
2021/06/04 05:34:28;;;;;;;5.30;1.40;;;;;;;23.27;40.76;100583.16;3376083;29;20134;-69
2021/06/04 05:36:12;;;;;;;7.27;2.20;;;;;;;23.29;40.46;100587.25;3375848;29;20079;-69
2021/06/04 05:37:53;;;;;;;10.23;1.70;;;;;;;23.33;40.60;100584.00;3375677;29;20104;-69
2021/06/04 05:39:34;;;;;;;10.35;2.25;;;;;;;23.36;40.38;100587.03;3376138;29;20047;-68
2021/06/04 05:41:15;;;;;;;2.50;1.70;;;;;;;23.40;40.18;100585.44;3375761;29;20040;-70
2021/06/04 05:42:57;;;;;;;3.17;1.55;;;;;;;23.42;40.19;100583.31;3375992;29;20530;-70
2021/06/04 05:44:39;;;;;;;4.22;1.50;;;;;;;23.49;40.07;100583.06;3375892;29;20051;-71
2021/06/04 05:46:20;;;;;;;4.10;1.88;;;;;;;23.52;40.20;100580.66;3376054;29;20048;-68
2021/06/04 05:48:02;;;;;;;3.33;1.85;;;;;;;23.54;39.81;100574.13;3375544;29;20066;-71
2021/06/04 05:49:43;;;;;;;3.03;1.17;;;;;;;23.59;39.62;100566.00;3374770;29;20447;-69
2021/06/04 05:51:27;;;;;;;3.63;1.70;;;;;;;23.63;39.52;100578.03;3375254;29;20044;-69
2021/06/04 05:53:11;;;;;;;3.13;1.75;;;;;;;23.63;39.09;100573.41;3361012;29;20041;-72
2021/06/04 05:54:52;;;;;;;2.83;1.63;;;;;;;23.66;39.05;100570.16;3363023;29;20041;-69
2021/06/04 05:56:33;;;;;;;2.35;1.35;;;;;;;23.70;39.43;100567.75;3363061;29;20140;-71
2021/06/04 05:58:18;;;;;;;4.00;1.40;;;;;;;23.74;38.94;100566.16;3374328;29;20048;-69
2021/06/04 05:59:59;;;;;;;3.60;1.48;;;;;;;23.80;39.10;100581.47;3375075;29;20052;-72
2021/06/04 06:01:41;;;;;;;3.70;1.50;;;;;;;23.83;38.74;100567.34;3374839;29;20079;-69
2021/06/04 06:03:26;;;;;;;1.83;1.65;;;;;;;23.85;38.43;100575.22;3375444;29;20052;-69
2021/06/04 06:05:08;;;;;;;2.17;1.60;;;;;;;23.90;38.42;100569.81;3375696;29;20080;-68
2021/06/04 06:06:51;;;;;;;3.55;1.55;;;;;;;23.92;38.52;100565.75;3375417;29;20530;-70
2021/06/04 06:08:32;;;;;;;3.42;1.45;;;;;;;23.96;38.28;100568.78;3375600;29;20107;-70
2021/06/04 06:10:13;;;;;;;3.08;1.67;;;;;;;24.00;38.10;100563.63;3374627;29;20099;-69
2021/06/04 06:11:54;;;;;;;1.30;1.20;;;;;;;24.00;37.83;100567.16;3374024;29;20540;-68
2021/06/04 06:13:36;;;;;;;5.15;1.35;;;;;;;24.02;37.93;100564.19;3372300;29;20044;-70
2021/06/04 06:15:18;;;;;;;8.13;1.63;;;;;;;24.09;37.81;100564.78;3372951;29;20528;-71
2021/06/04 06:16:59;;;;;;;2.45;1.20;;;;;;;24.12;37.62;100569.72;3359850;29;20080;-70
2021/06/04 06:18:40;;;;;;;4.20;2.03;;;;;;;24.18;37.41;100565.94;3370439;29;20048;-68
2021/06/04 06:20:28;;;;;;;4.73;1.70;;;;;;;24.25;37.14;100569.25;3375683;29;20084;-69
2021/06/04 06:22:10;;;;;;;3.03;1.80;;;;;;;24.28;36.94;100574.16;3374767;29;20067;-69
2021/06/04 06:23:50;;;;;;;2.28;1.42;;;;;;;24.34;36.69;100572.28;3375455;29;20082;-69
2021/06/04 06:25:40;;;;;;;5.43;2.00;;;;;;;24.40;36.31;100564.97;3374207;29;20055;-70
2021/06/04 06:27:21;;;;;;;3.35;1.65;;;;;;;24.51;36.05;100566.69;3374230;29;20040;-72
2021/06/04 06:29:05;;;;;;;4.07;1.83;;;;;;;24.61;35.96;100566.72;3375080;29;20397;-68
2021/06/04 06:30:47;;;;;;;5.45;1.85;;;;;;;24.69;35.93;100562.66;3372337;29;20043;-68
2021/06/04 06:32:29;;;;;;;8.07;2.08;;;;;;;24.77;35.64;100568.41;3374920;29;20076;-67
2021/06/04 06:34:10;;;;;;;7.45;2.45;;;;;;;24.85;35.48;100566.25;3374880;29;20130;-69
2021/06/04 06:35:52;;;;;;;6.63;1.70;;;;;;;24.95;34.82;100572.56;3375871;29;20064;-70
2021/06/04 06:37:33;;;;;;;5.57;2.10;;;;;;;24.99;34.63;100565.50;3376805;29;20415;-69
2021/06/04 06:39:25;;;;;;;5.17;1.83;;;;;;;25.11;34.53;100565.22;3373501;29;20131;-68
2021/06/04 06:41:10;;;;;;;9.20;2.45;;;;;;;25.20;34.24;100569.13;3373998;29;20041;-71
2021/06/04 06:42:52;;;;;;;4.43;1.85;;;;;;;25.27;34.30;100571.56;3369083;29;20045;-71
2021/06/04 06:44:34;;;;;;;2.22;1.73;;;;;;;25.38;34.33;100575.16;3371759;29;20044;-71
2021/06/04 06:46:16;;;;;;;;;;;;;;;25.53;34.53;100566.97;3371472;29;20037;-71
2021/06/04 06:47:57;;;;;;;3.03;1.60;;;;;;;25.55;34.29;100567.50;3373121;29;19928;-71
2021/06/04 06:49:37;;;;;;;4.33;2.00;;;;;;;25.61;33.76;100571.88;3372637;29;20067;-68
2021/06/04 06:51:19;;;;;;;2.17;1.83;;;;;;;25.68;33.75;100569.66;3373334;29;20566;-71
2021/06/04 06:53:03;;;;;;;3.40;1.83;;;;;;;25.74;34.03;100559.59;3371568;29;20044;-70
2021/06/04 06:54:45;;;;;;;4.65;2.15;;;;;;;25.82;33.99;100559.03;3370263;29;20544;-71
2021/06/04 06:56:27;;;;;;;1.92;1.75;;;;;;;25.87;34.30;100561.78;3372545;29;20073;-71
2021/06/04 06:58:09;;;;;;;2.70;2.00;;;;;;;25.94;33.93;100561.50;3370378;29;20139;-70
2021/06/04 06:59:49;;;;;;;4.45;1.95;;;;;;;26.01;33.77;100566.69;3373118;29;20050;-72
2021/06/04 07:01:30;;;;;;;5.73;2.57;;;;;;;26.08;33.75;100562.56;3372243;29;20044;-70
2021/06/04 07:03:15;;;;;;;5.07;2.27;;;;;;;26.15;33.37;100562.28;3385863;29;20048;-71
2021/06/04 07:04:59;;;;;;;6.38;2.10;;;;;;;26.22;33.61;100564.72;3376837;29;20044;-69
2021/06/04 07:06:41;;;;;;;4.43;2.13;;;;;;;26.27;33.70;100570.97;3377164;29;20044;-70
2021/06/04 07:08:22;;;;;;;5.40;3.00;;;;;;;26.31;33.61;100571.25;3377334;29;20076;-71
2021/06/04 07:10:03;;;;;;;2.83;2.28;;;;;;;26.38;33.74;100577.22;3375277;29;20040;-70
2021/06/04 07:11:50;;;;;;;4.90;2.67;;;;;;;26.44;33.78;100561.66;3367409;29;20048;-72
2021/06/04 07:13:31;;;;;;;6.18;2.30;;;;;;;26.48;33.69;100555.31;3372714;29;20127;-71
2021/06/04 07:15:16;;;;;;;4.05;2.10;;;;;;;26.53;33.49;100568.19;3375216;29;20413;-72
2021/06/04 07:16:57;;;;;;;4.50;2.22;;;;;;;26.56;33.49;100567.63;3376792;29;20419;-71
2021/06/04 07:18:39;;;;;;;3.93;1.87;;;;;;;26.65;33.15;100573.38;3376010;29;20140;-72
2021/06/04 07:20:20;;;;;;;;;;;;;;;26.80;33.34;100569.72;3370299;29;20124;-71
2021/06/04 07:22:03;;;;;;;9.37;1.93;;;;;;;26.79;32.90;100555.22;3370216;29;20412;-70
2021/06/04 07:23:43;;;;;;;3.63;1.88;;;;;;;26.84;32.59;100563.41;3372381;29;20044;-71
2021/06/04 07:25:27;;;;;;;4.37;2.20;;;;;;;26.91;32.47;100563.09;3374128;29;20067;-72
2021/06/04 07:27:08;;;;;;;5.50;2.38;;;;;;;26.94;32.71;100560.63;3377758;29;20040;-71
2021/06/04 07:28:49;;;;;;;4.00;2.40;;;;;;;27.02;32.83;100559.19;3378084;29;20056;-72
2021/06/04 07:30:38;;;;;;;6.13;2.17;;;;;;;27.11;32.22;100567.66;3372625;29;20087;-71
2021/06/04 07:32:19;;;;;;;9.18;2.38;;;;;;;27.17;31.98;100569.25;3376247;29;20380;-72
2021/06/04 07:34:03;;;;;;;2.58;2.15;;;;;;;27.24;32.27;100564.31;3371824;29;20076;-70
2021/06/04 07:35:44;;;;;;;3.00;1.73;;;;;;;27.32;32.38;100557.41;3370799;29;20036;-71
2021/06/04 07:37:24;;;;;;;9.03;2.67;;;;;;;27.39;32.22;100555.97;3371251;29;20531;-70
2021/06/04 07:39:08;;;;;;;5.17;2.20;;;;;;;27.44;31.85;100563.31;3371283;29;20079;-71
2021/06/04 07:40:49;;;;;;;2.42;1.70;;;;;;;27.51;32.05;100543.84;3374054;29;20040;-72
2021/06/04 07:42:30;;;;;;;5.13;2.30;;;;;;;27.55;31.85;100542.16;3377168;29;20189;-71
2021/06/04 07:44:13;;;;;;;3.35;2.20;;;;;;;27.63;32.09;100552.50;3375168;29;20064;-72
2021/06/04 07:45:55;;;;;;;6.07;2.08;;;;;;;27.68;31.59;100546.97;3377642;29;20055;-70
2021/06/04 07:47:36;;;;;;;2.40;2.20;;;;;;;27.78;31.26;100554.28;3376996;29;20041;-70
2021/06/04 07:49:19;;;;;;;3.97;2.10;;;;;;;27.83;31.52;100551.53;3367120;29;20117;-74
2021/06/04 07:51:00;;;;;;;;;;;;;;;28.01;31.53;100560.91;3371061;29;20060;-70
2021/06/04 07:52:41;;;;;;;5.05;1.90;;;;;;;28.00;31.57;100537.38;3370854;29;19961;-70
2021/06/04 07:54:28;;;;;;;5.93;2.22;;;;;;;28.10;31.09;100550.16;3370531;29;20040;-72
2021/06/04 07:56:09;;;;;;;3.63;1.80;;;;;;;28.17;30.83;100551.44;3377139;29;20127;-70
2021/06/04 07:57:54;;;;;;;4.90;1.83;;;;;;;28.25;30.66;100559.03;3376887;29;20040;-70
2021/06/04 07:59:36;;;;;;;5.85;1.80;;;;;;;28.33;31.05;100548.53;3374865;29;20048;-73
2021/06/04 08:01:20;;;;;;;2.58;2.38;;;;;;;28.40;30.88;100554.47;3376820;29;20158;-70
2021/06/04 08:03:03;;;;;;;6.50;2.03;;;;;;;28.47;30.74;100555.78;3376881;29;20040;-70
2021/06/04 08:04:45;;;;;;;4.47;1.60;;;;;;;28.55;30.72;100540.59;3376921;29;20432;-71
2021/06/04 08:06:25;;;;;;;3.40;1.60;;;;;;;28.61;30.66;100536.69;3376458;29;20041;-72
2021/06/04 08:08:09;;;;;;;3.07;1.70;;;;;;;28.68;30.52;100539.06;3376964;29;20048;-70
2021/06/04 08:09:50;;;;;;;3.30;1.60;;;;;;;28.76;30.73;100534.81;3375935;29;20437;-70